sensor_id;sensor_type;location;lat;lon;timestamp;pressure;altitude;pressure_sealevel;temperature;humidity
34241;BME280;20503;50.200;19.508;2022-08-18T00:04:37;101436.44;;;23.43;67.19
34241;BME280;20503;50.200;19.508;2022-08-18T00:09:47;101439.23;;;23.43;67.13
34241;BME280;20503;50.200;19.508;2022-08-18T00:14:58;101428.02;;;23.38;67.26
34241;BME280;20503;50.200;19.508;2022-08-18T00:20:13;101415.16;;;23.37;67.54
34241;BME280;20503;50.200;19.508;2022-08-18T00:25:20;101422.98;;;23.35;67.81
34241;BME280;20503;50.200;19.508;2022-08-18T00:30:30;101433.61;;;23.33;68.01
34241;BME280;20503;50.200;19.508;2022-08-18T00:35:40;101437.27;;;23.33;67.95
34241;BME280;20503;50.200;19.508;2022-08-18T00:40:53;101424.40;;;23.32;68.03
34241;BME280;20503;50.200;19.508;2022-08-18T00:46:09;101419.07;;;23.31;68.14
34241;BME280;20503;50.200;19.508;2022-08-18T00:56:35;101399.20;;;23.27;68.41
34241;BME280;20503;50.200;19.508;2022-08-18T01:01:40;101405.09;;;23.26;68.67
34241;BME280;20503;50.200;19.508;2022-08-18T01:06:55;101411.25;;;23.23;68.82
34241;BME280;20503;50.200;19.508;2022-08-18T01:11:57;101408.71;;;23.16;68.98
34241;BME280;20503;50.200;19.508;2022-08-18T01:17:06;101407.85;;;23.16;69.38
34241;BME280;20503;50.200;19.508;2022-08-18T01:27:33;101403.31;;;23.05;69.90
34241;BME280;20503;50.200;19.508;2022-08-18T01:32:39;101404.98;;;23.01;70.08
34241;BME280;20503;50.200;19.508;2022-08-18T01:37:49;101399.95;;;22.98;70.09
34241;BME280;20503;50.200;19.508;2022-08-18T01:43:00;101413.63;;;22.95;70.41
34241;BME280;20503;50.200;19.508;2022-08-18T01:48:11;101405.23;;;22.90;70.40
34241;BME280;20503;50.200;19.508;2022-08-18T01:53:22;101411.63;;;22.85;70.45
34241;BME280;20503;50.200;19.508;2022-08-18T01:58:34;101406.59;;;22.77;70.56
34241;BME280;20503;50.200;19.508;2022-08-18T02:03:49;101398.71;;;22.69;70.61
34241;BME280;20503;50.200;19.508;2022-08-18T02:08:53;101395.35;;;22.62;70.92
34241;BME280;20503;50.200;19.508;2022-08-18T02:14:05;101399.26;;;22.61;71.39
34241;BME280;20503;50.200;19.508;2022-08-18T02:19:15;101402.00;;;22.56;71.60
34241;BME280;20503;50.200;19.508;2022-08-18T02:24:26;101382.45;;;22.51;71.55
34241;BME280;20503;50.200;19.508;2022-08-18T02:29:37;101372.40;;;22.50;72.26
34241;BME280;20503;50.200;19.508;2022-08-18T02:34:47;101359.30;;;22.51;72.57
34241;BME280;20503;50.200;19.508;2022-08-18T02:39:58;101369.05;;;22.53;72.62
34241;BME280;20503;50.200;19.508;2022-08-18T02:45:09;101374.09;;;22.56;72.59
34241;BME280;20503;50.200;19.508;2022-08-18T02:50:19;101379.97;;;22.55;72.80
34241;BME280;20503;50.200;19.508;2022-08-18T02:55:31;101389.72;;;22.52;72.85
34241;BME280;20503;50.200;19.508;2022-08-18T03:00:41;101384.11;;;22.47;72.63
34241;BME280;20503;50.200;19.508;2022-08-18T03:05:51;101395.83;;;22.44;72.70
34241;BME280;20503;50.200;19.508;2022-08-18T03:11:02;101395.77;;;22.39;72.86
34241;BME280;20503;50.200;19.508;2022-08-18T03:16:14;101406.02;;;22.29;72.47
34241;BME280;20503;50.200;19.508;2022-08-18T03:21:26;101410.67;;;22.13;72.31
34241;BME280;20503;50.200;19.508;2022-08-18T03:26:41;101411.70;;;22.02;72.18
34241;BME280;20503;50.200;19.508;2022-08-18T03:31:46;101410.47;;;21.88;72.30
34241;BME280;20503;50.200;19.508;2022-08-18T03:36:56;101419.60;;;21.79;72.35
34241;BME280;20503;50.200;19.508;2022-08-18T03:42:07;101414.81;;;21.74;72.82
34241;BME280;20503;50.200;19.508;2022-08-18T03:47:17;101425.12;;;21.69;72.84
34241;BME280;20503;50.200;19.508;2022-08-18T03:52:28;101425.23;;;21.57;73.10
34241;BME280;20503;50.200;19.508;2022-08-18T03:57:39;101436.55;;;21.46;73.58
34241;BME280;20503;50.200;19.508;2022-08-18T04:02:49;101435.57;;;21.30;73.93
34241;BME280;20503;50.200;19.508;2022-08-18T04:08:01;101424.96;;;21.27;73.89
34241;BME280;20503;50.200;19.508;2022-08-18T04:13:11;101441.66;;;21.27;73.92
34241;BME280;20503;50.200;19.508;2022-08-18T04:18:22;101440.81;;;21.27;74.23
34241;BME280;20503;50.200;19.508;2022-08-18T04:23:34;101432.74;;;21.25;74.40
34241;BME280;20503;50.200;19.508;2022-08-18T04:28:43;101443.07;;;21.30;74.63
34241;BME280;20503;50.200;19.508;2022-08-18T04:33:56;101443.76;;;21.42;74.62
34241;BME280;20503;50.200;19.508;2022-08-18T04:39:07;101446.23;;;21.65;74.79
34241;BME280;20503;50.200;19.508;2022-08-18T04:44:16;101454.65;;;22.01;74.78
34241;BME280;20503;50.200;19.508;2022-08-18T04:49:26;101459.16;;;22.44;74.25
34241;BME280;20503;50.200;19.508;2022-08-18T04:54:38;101455.20;;;22.81;73.52
34241;BME280;20503;50.200;19.508;2022-08-18T04:59:49;101452.55;;;23.16;72.75
34241;BME280;20503;50.200;19.508;2022-08-18T05:04:59;101457.13;;;23.52;71.96
34241;BME280;20503;50.200;19.508;2022-08-18T05:10:09;101454.36;;;23.82;71.09
34241;BME280;20503;50.200;19.508;2022-08-18T05:15:20;101458.02;;;24.12;70.32
34241;BME280;20503;50.200;19.508;2022-08-18T05:20:30;101465.81;;;24.45;69.46
34241;BME280;20503;50.200;19.508;2022-08-18T05:25:41;101457.65;;;24.79;68.57
34241;BME280;20503;50.200;19.508;2022-08-18T05:30:52;101455.24;;;25.15;67.69
34241;BME280;20503;50.200;19.508;2022-08-18T05:36:05;101446.05;;;25.58;66.79
34241;BME280;20503;50.200;19.508;2022-08-18T05:41:20;101448.23;;;26.05;64.95
34241;BME280;20503;50.200;19.508;2022-08-18T05:51:44;101444.48;;;26.95;62.37
34241;BME280;20503;50.200;19.508;2022-08-18T05:56:49;101447.30;;;27.36;61.34
34241;BME280;20503;50.200;19.508;2022-08-18T06:02:28;101451.52;;;27.76;59.89
34241;BME280;20503;50.200;19.508;2022-08-18T06:12:50;101451.96;;;28.33;57.47
34241;BME280;20503;50.200;19.508;2022-08-18T06:28:21;101462.79;;;28.72;55.03
34241;BME280;20503;50.200;19.508;2022-08-18T06:33:36;101474.83;;;28.91;55.43
34241;BME280;20503;50.200;19.508;2022-08-18T06:44:02;101471.35;;;29.34;54.29
34241;BME280;20503;50.200;19.508;2022-08-18T06:49:07;101486.79;;;29.63;52.86
34241;BME280;20503;50.200;19.508;2022-08-18T06:59:32;101482.01;;;29.86;51.27
34241;BME280;20503;50.200;19.508;2022-08-18T07:04:41;101501.13;;;29.89;52.06
34241;BME280;20503;50.200;19.508;2022-08-18T07:09:43;101483.30;;;30.02;51.65
34241;BME280;20503;50.200;19.508;2022-08-18T07:14:59;101485.97;;;29.98;50.84
34241;BME280;20503;50.200;19.508;2022-08-18T07:25:22;101473.32;;;30.18;51.20
34241;BME280;20503;50.200;19.508;2022-08-18T07:30:30;101470.31;;;30.36;50.49
34241;BME280;20503;50.200;19.508;2022-08-18T07:41:02;101465.14;;;30.60;49.18
34241;BME280;20503;50.200;19.508;2022-08-18T07:46:11;101466.88;;;30.48;48.87
34241;BME280;20503;50.200;19.508;2022-08-18T07:51:24;101455.38;;;30.44;49.13
34241;BME280;20503;50.200;19.508;2022-08-18T07:56:38;101467.51;;;30.67;48.92
34241;BME280;20503;50.200;19.508;2022-08-18T08:01:53;101460.70;;;30.68;49.30
34241;BME280;20503;50.200;19.508;2022-08-18T08:07:04;101458.29;;;30.83;48.29
34241;BME280;20503;50.200;19.508;2022-08-18T08:17:31;101468.34;;;30.45;47.88
34241;BME280;20503;50.200;19.508;2022-08-18T08:22:43;101475.51;;;30.21;49.08
34241;BME280;20503;50.200;19.508;2022-08-18T08:33:09;101482.88;;;30.30;48.55
34241;BME280;20503;50.200;19.508;2022-08-18T08:38:15;101500.90;;;30.34;48.65
34241;BME280;20503;50.200;19.508;2022-08-18T08:43:44;101495.34;;;30.51;48.25
34241;BME280;20503;50.200;19.508;2022-08-18T08:48:39;101508.32;;;30.74;47.97
34241;BME280;20503;50.200;19.508;2022-08-18T08:53:52;101508.59;;;30.95;47.81
34241;BME280;20503;50.200;19.508;2022-08-18T08:59:02;101521.77;;;30.99;46.73
34241;BME280;20503;50.200;19.508;2022-08-18T09:04:17;101540.41;;;31.00;46.80
34241;BME280;20503;50.200;19.508;2022-08-18T09:09:33;101521.23;;;30.97;46.49
34241;BME280;20503;50.200;19.508;2022-08-18T09:14:43;101509.09;;;30.97;46.05
34241;BME280;20503;50.200;19.508;2022-08-18T09:24:55;101515.68;;;30.84;46.63
34241;BME280;20503;50.200;19.508;2022-08-18T09:29:59;101523.81;;;30.77;46.90
34241;BME280;20503;50.200;19.508;2022-08-18T09:40:19;101493.73;;;31.28;46.05
34241;BME280;20503;50.200;19.508;2022-08-18T09:45:41;101493.12;;;31.31;45.45
34241;BME280;20503;50.200;19.508;2022-08-18T09:56:03;101489.05;;;31.79;44.73
34241;BME280;20503;50.200;19.508;2022-08-18T10:06:18;101497.23;;;32.15;42.75
34241;BME280;20503;50.200;19.508;2022-08-18T10:16:46;101496.23;;;32.28;42.59
34241;BME280;20503;50.200;19.508;2022-08-18T10:27:07;101480.31;;;32.61;42.18
34241;BME280;20503;50.200;19.508;2022-08-18T10:32:21;101490.10;;;32.89;41.93
34241;BME280;20503;50.200;19.508;2022-08-18T10:37:29;101475.63;;;33.11;41.38
34241;BME280;20503;50.200;19.508;2022-08-18T10:42:40;101479.72;;;32.93;41.17
34241;BME280;20503;50.200;19.508;2022-08-18T10:47:42;101468.07;;;32.86;41.63
34241;BME280;20503;50.200;19.508;2022-08-18T11:08:22;101429.24;;;33.36;40.75
34241;BME280;20503;50.200;19.508;2022-08-18T11:13:41;101428.00;;;33.45;40.32
34241;BME280;20503;50.200;19.508;2022-08-18T11:18:43;101432.38;;;33.63;40.44
34241;BME280;20503;50.200;19.508;2022-08-18T11:28:57;101412.98;;;33.85;39.18
34241;BME280;20503;50.200;19.508;2022-08-18T11:33:58;101416.23;;;33.96;39.32
34241;BME280;20503;50.200;19.508;2022-08-18T11:39:00;101410.74;;;34.11;39.65
34241;BME280;20503;50.200;19.508;2022-08-18T11:44:12;101421.73;;;34.33;39.25
34241;BME280;20503;50.200;19.508;2022-08-18T11:49:25;101419.40;;;34.47;38.53
34241;BME280;20503;50.200;19.508;2022-08-18T11:54:39;101410.19;;;34.62;38.60
34241;BME280;20503;50.200;19.508;2022-08-18T11:59:42;101383.89;;;34.77;38.33
34241;BME280;20503;50.200;19.508;2022-08-18T12:04:51;101374.14;;;35.02;37.85
34241;BME280;20503;50.200;19.508;2022-08-18T12:15:23;101347.55;;;35.22;37.38
34241;BME280;20503;50.200;19.508;2022-08-18T12:20:26;101356.09;;;35.22;37.24
34241;BME280;20503;50.200;19.508;2022-08-18T12:25:31;101356.78;;;35.43;36.95
34241;BME280;20503;50.200;19.508;2022-08-18T12:30:42;101353.95;;;35.31;36.06
34241;BME280;20503;50.200;19.508;2022-08-18T12:35:53;101353.22;;;35.34;36.04
34241;BME280;20503;50.200;19.508;2022-08-18T12:41:03;101347.03;;;35.44;36.12
34241;BME280;20503;50.200;19.508;2022-08-18T12:46:14;101342.93;;;35.69;36.27
34241;BME280;20503;50.200;19.508;2022-08-18T12:51:25;101339.59;;;35.94;35.74
34241;BME280;20503;50.200;19.508;2022-08-18T12:56:36;101351.20;;;36.29;35.70
34241;BME280;20503;50.200;19.508;2022-08-18T13:01:46;101347.60;;;36.32;34.54
34241;BME280;20503;50.200;19.508;2022-08-18T13:06:58;101346.86;;;36.35;34.15
34241;BME280;20503;50.200;19.508;2022-08-18T13:12:08;101350.73;;;36.42;34.46
34241;BME280;20503;50.200;19.508;2022-08-18T13:17:18;101348.39;;;36.60;34.05
34241;BME280;20503;50.200;19.508;2022-08-18T13:22:29;101342.74;;;36.79;34.04
34241;BME280;20503;50.200;19.508;2022-08-18T13:27:40;101355.28;;;36.74;32.98
34241;BME280;20503;50.200;19.508;2022-08-18T13:32:50;101369.23;;;36.48;33.43
34241;BME280;20503;50.200;19.508;2022-08-18T13:38:01;101366.48;;;36.52;33.59
34241;BME280;20503;50.200;19.508;2022-08-18T13:43:12;101376.27;;;36.82;33.19
34241;BME280;20503;50.200;19.508;2022-08-18T13:48:23;101387.28;;;37.30;33.26
34241;BME280;20503;50.200;19.508;2022-08-18T13:53:36;101389.69;;;37.28;32.20
34241;BME280;20503;50.200;19.508;2022-08-18T13:58:44;101394.21;;;37.13;32.05
34241;BME280;20503;50.200;19.508;2022-08-18T14:03:55;101388.07;;;36.65;32.45
34241;BME280;20503;50.200;19.508;2022-08-18T14:09:06;101391.84;;;36.69;32.65
34241;BME280;20503;50.200;19.508;2022-08-18T14:14:16;101389.09;;;37.03;32.37
34241;BME280;20503;50.200;19.508;2022-08-18T14:19:27;101391.46;;;37.17;31.78
34241;BME280;20503;50.200;19.508;2022-08-18T14:24:41;101371.66;;;37.43;31.89
34241;BME280;20503;50.200;19.508;2022-08-18T14:29:56;101369.83;;;38.07;31.71
34241;BME280;20503;50.200;19.508;2022-08-18T14:35:01;101376.20;;;38.19;30.16
34241;BME280;20503;50.200;19.508;2022-08-18T14:40:10;101365.99;;;37.99;30.28
34241;BME280;20503;50.200;19.508;2022-08-18T14:45:21;101363.54;;;38.20;29.67
34241;BME280;20503;50.200;19.508;2022-08-18T14:50:32;101354.15;;;38.20;29.69
34241;BME280;20503;50.200;19.508;2022-08-18T14:55:42;101346.57;;;38.08;30.00
34241;BME280;20503;50.200;19.508;2022-08-18T15:00:55;101337.73;;;38.17;30.12
34241;BME280;20503;50.200;19.508;2022-08-18T15:06:05;101328.05;;;38.25;29.86
34241;BME280;20503;50.200;19.508;2022-08-18T15:11:14;101335.37;;;38.41;30.03
34241;BME280;20503;50.200;19.508;2022-08-18T15:16:25;101345.64;;;38.68;29.87
34241;BME280;20503;50.200;19.508;2022-08-18T15:21:35;101352.64;;;38.93;29.56
34241;BME280;20503;50.200;19.508;2022-08-18T15:26:52;101324.23;;;39.11;29.09
34241;BME280;20503;50.200;19.508;2022-08-18T15:31:58;101336.94;;;38.61;28.79
34241;BME280;20503;50.200;19.508;2022-08-18T15:37:08;101342.16;;;38.56;29.21
34241;BME280;20503;50.200;19.508;2022-08-18T15:42:18;101338.22;;;38.41;29.59
34241;BME280;20503;50.200;19.508;2022-08-18T15:47:29;101336.10;;;38.38;29.71
34241;BME280;20503;50.200;19.508;2022-08-18T15:52:49;101337.45;;;38.44;29.80
34241;BME280;20503;50.200;19.508;2022-08-18T15:57:52;101343.88;;;38.60;29.67
34241;BME280;20503;50.200;19.508;2022-08-18T16:03:04;101329.66;;;38.67;29.43
34241;BME280;20503;50.200;19.508;2022-08-18T16:08:12;101342.66;;;38.61;29.76
34241;BME280;20503;50.200;19.508;2022-08-18T16:13:23;101329.28;;;38.91;29.74
34241;BME280;20503;50.200;19.508;2022-08-18T16:18:33;101336.60;;;38.89;29.58
34241;BME280;20503;50.200;19.508;2022-08-18T16:23:46;101334.45;;;38.60;29.63
34241;BME280;20503;50.200;19.508;2022-08-18T16:28:54;101325.63;;;38.27;30.07
34241;BME280;20503;50.200;19.508;2022-08-18T16:34:05;101322.57;;;38.16;30.32
34241;BME280;20503;50.200;19.508;2022-08-18T16:39:15;101324.20;;;37.76;30.59
34241;BME280;20503;50.200;19.508;2022-08-18T16:44:26;101328.36;;;37.25;31.11
34241;BME280;20503;50.200;19.508;2022-08-18T16:49:37;101316.95;;;36.29;31.90
34241;BME280;20503;50.200;19.508;2022-08-18T16:54:48;101327.78;;;35.41;32.86
34241;BME280;20503;50.200;19.508;2022-08-18T16:59:58;101327.08;;;34.69;33.97
34241;BME280;20503;50.200;19.508;2022-08-18T17:05:12;101306.62;;;33.86;34.74
34241;BME280;20503;50.200;19.508;2022-08-18T17:10:20;101295.66;;;33.03;35.80
34241;BME280;20503;50.200;19.508;2022-08-18T17:15:31;101293.41;;;32.22;37.20
34241;BME280;20503;50.200;19.508;2022-08-18T17:20:41;101292.73;;;31.36;38.64
34241;BME280;20503;50.200;19.508;2022-08-18T17:25:53;101293.98;;;30.71;39.59
34241;BME280;20503;50.200;19.508;2022-08-18T17:31:04;101293.38;;;30.05;41.23
34241;BME280;20503;50.200;19.508;2022-08-18T17:36:20;101306.46;;;29.48;42.25
34241;BME280;20503;50.200;19.508;2022-08-18T17:41:25;101311.20;;;29.04;43.30
34241;BME280;20503;50.200;19.508;2022-08-18T17:46:39;101319.71;;;28.64;44.19
34241;BME280;20503;50.200;19.508;2022-08-18T17:51:48;101320.42;;;28.29;45.69
34241;BME280;20503;50.200;19.508;2022-08-18T17:57:01;101332.89;;;27.96;46.52
34241;BME280;20503;50.200;19.508;2022-08-18T18:02:15;101339.03;;;27.66;47.15
34241;BME280;20503;50.200;19.508;2022-08-18T18:07:21;101339.72;;;27.44;47.80
34241;BME280;20503;50.200;19.508;2022-08-18T18:12:31;101357.82;;;27.20;48.53
34241;BME280;20503;50.200;19.508;2022-08-18T18:17:41;101362.54;;;27.01;49.67
34241;BME280;20503;50.200;19.508;2022-08-18T18:22:50;101371.51;;;26.85;49.53
34241;BME280;20503;50.200;19.508;2022-08-18T18:28:00;101369.95;;;26.74;49.92
34241;BME280;20503;50.200;19.508;2022-08-18T18:33:15;101361.15;;;26.62;50.46
34241;BME280;20503;50.200;19.508;2022-08-18T18:38:28;101358.48;;;26.47;51.71
34241;BME280;20503;50.200;19.508;2022-08-18T18:43:38;101364.49;;;26.35;52.45
34241;BME280;20503;50.200;19.508;2022-08-18T19:09:50;101321.41;;;25.98;53.57
34241;BME280;20503;50.200;19.508;2022-08-18T19:14:58;101317.50;;;25.94;53.77
34241;BME280;20503;50.200;19.508;2022-08-18T19:25:20;101294.30;;;25.88;54.52
34241;BME280;20503;50.200;19.508;2022-08-18T19:30:24;101280.26;;;25.83;54.74
34241;BME280;20503;50.200;19.508;2022-08-18T19:40:56;101264.37;;;25.74;54.86
34241;BME280;20503;50.200;19.508;2022-08-18T19:46:08;101264.69;;;25.72;54.81
34241;BME280;20503;50.200;19.508;2022-08-18T20:17:20;101259.56;;;25.51;55.49
34241;BME280;20503;50.200;19.508;2022-08-18T20:22:39;101252.56;;;25.48;56.00
34241;BME280;20503;50.200;19.508;2022-08-18T20:27:48;101257.63;;;25.46;56.43
34241;BME280;20503;50.200;19.508;2022-08-18T20:43:31;101235.48;;;25.45;56.90
34241;BME280;20503;50.200;19.508;2022-08-18T20:53:56;101248.96;;;25.43;56.94
34241;BME280;20503;50.200;19.508;2022-08-18T20:59:05;101248.96;;;25.43;57.08
34241;BME280;20503;50.200;19.508;2022-08-18T21:04:08;101240.86;;;25.41;57.64
34241;BME280;20503;50.200;19.508;2022-08-18T21:09:17;101240.61;;;25.38;58.29
34241;BME280;20503;50.200;19.508;2022-08-18T21:14:26;101237.54;;;25.34;58.37
34241;BME280;20503;50.200;19.508;2022-08-18T21:19:28;101242.93;;;25.31;58.26
34241;BME280;20503;50.200;19.508;2022-08-18T21:24:37;101236.47;;;25.30;58.18
34241;BME280;20503;50.200;19.508;2022-08-18T21:29:41;101231.46;;;25.27;58.63
34241;BME280;20503;50.200;19.508;2022-08-18T21:34:47;101233.19;;;25.23;59.07
34241;BME280;20503;50.200;19.508;2022-08-18T21:39:55;101228.16;;;25.20;59.48
34241;BME280;20503;50.200;19.508;2022-08-18T21:44:58;101239.66;;;25.19;59.24
34241;BME280;20503;50.200;19.508;2022-08-18T21:50:09;101246.66;;;25.16;59.28
34241;BME280;20503;50.200;19.508;2022-08-18T21:55:24;101238.30;;;25.11;59.35
34241;BME280;20503;50.200;19.508;2022-08-18T22:00:36;101233.28;;;25.08;59.56
34241;BME280;20503;50.200;19.508;2022-08-18T22:05:42;101243.64;;;25.08;59.69
34241;BME280;20503;50.200;19.508;2022-08-18T22:26:36;101242.40;;;24.91;60.51
34241;BME280;20503;50.200;19.508;2022-08-18T22:31:41;101242.99;;;24.88;60.46
34241;BME280;20503;50.200;19.508;2022-08-18T22:36:51;101249.15;;;24.85;60.99
34241;BME280;20503;50.200;19.508;2022-08-18T22:41:54;101248.60;;;24.83;60.76
34241;BME280;20503;50.200;19.508;2022-08-18T22:46:58;101254.78;;;24.80;60.81
34241;BME280;20503;50.200;19.508;2022-08-18T22:52:21;101244.17;;;24.77;61.10
34241;BME280;20503;50.200;19.508;2022-08-18T22:57:25;101237.18;;;24.74;61.06
34241;BME280;20503;50.200;19.508;2022-08-18T23:02:29;101248.96;;;24.71;61.21
34241;BME280;20503;50.200;19.508;2022-08-18T23:07:39;101244.77;;;24.69;61.35
34241;BME280;20503;50.200;19.508;2022-08-18T23:12:50;101254.88;;;24.65;61.38
34241;BME280;20503;50.200;19.508;2022-08-18T23:18:01;101251.82;;;24.61;61.40
34241;BME280;20503;50.200;19.508;2022-08-18T23:23:12;101259.68;;;24.59;61.74
34241;BME280;20503;50.200;19.508;2022-08-18T23:28:23;101250.19;;;24.55;61.78
34241;BME280;20503;50.200;19.508;2022-08-18T23:33:33;101255.52;;;24.52;61.78
34241;BME280;20503;50.200;19.508;2022-08-18T23:38:44;101264.20;;;24.50;61.86
34241;BME280;20503;50.200;19.508;2022-08-18T23:43:54;101253.58;;;24.47;62.02
34241;BME280;20503;50.200;19.508;2022-08-18T23:49:05;101244.59;;;24.45;62.03
34241;BME280;20503;50.200;19.508;2022-08-18T23:54:26;101246.03;;;24.43;62.08
34241;BME280;20503;50.200;19.508;2022-08-18T23:59:28;101222.54;;;24.39;62.28
